sensor_id;sensor_type;location;lat;lon;timestamp;P1;durP1;ratioP1;P2;durP2;ratioP2
1959;SDS011;980;43.794;11.212;2024-03-02T11:28:35;11.75;;;11.75;;
1959;SDS011;980;43.794;11.212;2024-03-02T11:31:02;5.75;;;4.00;;
1959;SDS011;980;43.794;11.212;2024-03-02T11:33:27;7.00;;;4.00;;
1959;SDS011;980;43.794;11.212;2024-03-02T11:35:54;5.50;;;5.50;;
1959;SDS011;980;43.794;11.212;2024-03-02T11:38:20;4.50;;;3.25;;
1959;SDS011;980;43.794;11.212;2024-03-02T11:40:46;5.00;;;5.00;;
1959;SDS011;980;43.794;11.212;2024-03-02T11:43:11;6.75;;;6.75;;
1959;SDS011;980;43.794;11.212;2024-03-02T11:45:37;7.50;;;5.50;;
1959;SDS011;980;43.794;11.212;2024-03-02T11:48:08;4.25;;;4.25;;
1959;SDS011;980;43.794;11.212;2024-03-02T11:50:34;4.50;;;4.00;;
1959;SDS011;980;43.794;11.212;2024-03-02T11:53:00;4.00;;;3.75;;
1959;SDS011;980;43.794;11.212;2024-03-02T11:55:26;5.25;;;5.00;;
1959;SDS011;980;43.794;11.212;2024-03-02T11:57:54;4.25;;;3.00;;
1959;SDS011;980;43.794;11.212;2024-03-02T12:00:20;3.00;;;3.00;;
1959;SDS011;980;43.794;11.212;2024-03-02T12:02:59;4.00;;;3.00;;
1959;SDS011;980;43.794;11.212;2024-03-02T12:05:25;3.75;;;2.75;;
1959;SDS011;980;43.794;11.212;2024-03-02T12:07:55;3.00;;;2.00;;
1959;SDS011;980;43.794;11.212;2024-03-02T12:10:20;2.00;;;2.00;;
1959;SDS011;980;43.794;11.212;2024-03-02T12:12:46;2.00;;;1.25;;
1959;SDS011;980;43.794;11.212;2024-03-02T12:15:11;2.75;;;1.75;;
1959;SDS011;980;43.794;11.212;2024-03-02T12:17:36;3.50;;;2.75;;
1959;SDS011;980;43.794;11.212;2024-03-02T12:20:04;2.75;;;1.50;;
1959;SDS011;980;43.794;11.212;2024-03-02T12:22:29;2.00;;;2.00;;
1959;SDS011;980;43.794;11.212;2024-03-02T12:24:54;3.75;;;1.50;;
1959;SDS011;980;43.794;11.212;2024-03-02T12:27:20;1.00;;;1.00;;
1959;SDS011;980;43.794;11.212;2024-03-02T12:29:46;5.25;;;4.75;;
1959;SDS011;980;43.794;11.212;2024-03-02T12:32:11;12.00;;;11.75;;
1959;SDS011;980;43.794;11.212;2024-03-02T12:34:39;6.75;;;6.00;;
1959;SDS011;980;43.794;11.212;2024-03-02T12:37:04;5.75;;;3.00;;
1959;SDS011;980;43.794;11.212;2024-03-02T12:39:30;5.00;;;5.00;;
1959;SDS011;980;43.794;11.212;2024-03-02T12:41:57;2.75;;;1.00;;
1959;SDS011;980;43.794;11.212;2024-03-02T12:44:23;3.00;;;2.50;;
1959;SDS011;980;43.794;11.212;2024-03-02T12:46:48;5.50;;;3.00;;
1959;SDS011;980;43.794;11.212;2024-03-02T12:49:14;1.00;;;1.00;;
1959;SDS011;980;43.794;11.212;2024-03-02T12:51:41;0.00;;;0.00;;
1959;SDS011;980;43.794;11.212;2024-03-02T12:54:07;12.50;;;7.00;;
1959;SDS011;980;43.794;11.212;2024-03-02T12:56:33;24.25;;;21.50;;
1959;SDS011;980;43.794;11.212;2024-03-02T12:58:58;19.75;;;16.50;;
1959;SDS011;980;43.794;11.212;2024-03-02T13:01:24;5.75;;;5.50;;
1959;SDS011;980;43.794;11.212;2024-03-02T13:03:50;25.00;;;21.75;;
1959;SDS011;980;43.794;11.212;2024-03-02T13:06:18;6.50;;;6.50;;
1959;SDS011;980;43.794;11.212;2024-03-02T13:08:44;5.50;;;3.00;;
1959;SDS011;980;43.794;11.212;2024-03-02T13:11:09;4.50;;;4.50;;
1959;SDS011;980;43.794;11.212;2024-03-02T13:13:35;3.00;;;3.00;;
1959;SDS011;980;43.794;11.212;2024-03-02T13:16:01;5.00;;;5.00;;
1959;SDS011;980;43.794;11.212;2024-03-02T13:18:28;2.50;;;1.25;;
1959;SDS011;980;43.794;11.212;2024-03-02T13:20:54;4.75;;;3.00;;
1959;SDS011;980;43.794;11.212;2024-03-02T13:23:21;5.00;;;3.00;;
1959;SDS011;980;43.794;11.212;2024-03-02T13:25:46;2.75;;;1.75;;
1959;SDS011;980;43.794;11.212;2024-03-02T13:28:12;3.00;;;3.00;;
1959;SDS011;980;43.794;11.212;2024-03-02T13:30:37;3.00;;;2.00;;
1959;SDS011;980;43.794;11.212;2024-03-02T13:33:03;3.00;;;2.00;;
1959;SDS011;980;43.794;11.212;2024-03-02T13:35:28;7.00;;;2.50;;
1959;SDS011;980;43.794;11.212;2024-03-02T13:37:54;4.00;;;4.00;;
1959;SDS011;980;43.794;11.212;2024-03-02T13:40:19;1.75;;;1.50;;
1959;SDS011;980;43.794;11.212;2024-03-02T13:42:47;3.00;;;2.00;;
1959;SDS011;980;43.794;11.212;2024-03-02T13:45:13;7.50;;;2.00;;
1959;SDS011;980;43.794;11.212;2024-03-02T13:47:38;3.50;;;1.75;;
1959;SDS011;980;43.794;11.212;2024-03-02T13:50:04;1.00;;;1.00;;
1959;SDS011;980;43.794;11.212;2024-03-02T13:52:30;1.50;;;1.50;;
1959;SDS011;980;43.794;11.212;2024-03-02T13:54:55;1.75;;;1.75;;
1959;SDS011;980;43.794;11.212;2024-03-02T13:57:21;4.50;;;1.75;;
1959;SDS011;980;43.794;11.212;2024-03-02T13:59:46;5.00;;;3.00;;
1959;SDS011;980;43.794;11.212;2024-03-02T14:02:12;2.00;;;2.00;;
1959;SDS011;980;43.794;11.212;2024-03-02T14:04:37;3.00;;;2.25;;
1959;SDS011;980;43.794;11.212;2024-03-02T14:07:03;2.25;;;2.00;;
1959;SDS011;980;43.794;11.212;2024-03-02T14:09:29;5.00;;;3.00;;
1959;SDS011;980;43.794;11.212;2024-03-02T14:11:54;2.00;;;2.00;;
1959;SDS011;980;43.794;11.212;2024-03-02T14:14:20;4.00;;;2.25;;
1959;SDS011;980;43.794;11.212;2024-03-02T14:16:45;1.50;;;1.50;;
1959;SDS011;980;43.794;11.212;2024-03-02T14:19:11;4.00;;;2.00;;
1959;SDS011;980;43.794;11.212;2024-03-02T14:21:37;2.00;;;2.00;;
1959;SDS011;980;43.794;11.212;2024-03-02T14:24:02;3.00;;;3.00;;
1959;SDS011;980;43.794;11.212;2024-03-02T14:26:28;5.50;;;2.25;;
1959;SDS011;980;43.794;11.212;2024-03-02T14:28:53;6.25;;;5.50;;
1959;SDS011;980;43.794;11.212;2024-03-02T14:31:18;6.00;;;4.00;;
1959;SDS011;980;43.794;11.212;2024-03-02T14:33:45;3.75;;;2.00;;
1959;SDS011;980;43.794;11.212;2024-03-02T14:36:10;2.00;;;2.00;;
1959;SDS011;980;43.794;11.212;2024-03-02T14:38:36;10.50;;;10.00;;
1959;SDS011;980;43.794;11.212;2024-03-02T14:41:02;41.50;;;38.25;;
1959;SDS011;980;43.794;11.212;2024-03-02T14:43:28;20.50;;;18.00;;
1959;SDS011;980;43.794;11.212;2024-03-02T14:45:53;13.50;;;11.00;;
1959;SDS011;980;43.794;11.212;2024-03-02T14:48:19;8.00;;;7.00;;
1959;SDS011;980;43.794;11.212;2024-03-02T14:50:44;3.00;;;3.00;;
1959;SDS011;980;43.794;11.212;2024-03-02T14:53:09;5.50;;;3.75;;
1959;SDS011;980;43.794;11.212;2024-03-02T14:55:35;3.00;;;2.00;;
1959;SDS011;980;43.794;11.212;2024-03-02T14:58:00;1.00;;;1.00;;
1959;SDS011;980;43.794;11.212;2024-03-02T15:00:25;6.00;;;3.00;;
1959;SDS011;980;43.794;11.212;2024-03-02T15:02:51;10.75;;;10.75;;
1959;SDS011;980;43.794;11.212;2024-03-02T15:05:16;46.75;;;40.00;;
1959;SDS011;980;43.794;11.212;2024-03-02T15:07:42;35.00;;;27.75;;
1959;SDS011;980;43.794;11.212;2024-03-02T15:10:08;14.00;;;10.00;;
1959;SDS011;980;43.794;11.212;2024-03-02T15:12:33;4.00;;;2.50;;
1959;SDS011;980;43.794;11.212;2024-03-02T15:14:58;6.75;;;5.75;;
1959;SDS011;980;43.794;11.212;2024-03-02T15:17:24;2.50;;;2.50;;
1959;SDS011;980;43.794;11.212;2024-03-02T15:19:49;2.00;;;1.00;;
1959;SDS011;980;43.794;11.212;2024-03-02T15:22:14;5.25;;;3.25;;
1959;SDS011;980;43.794;11.212;2024-03-02T15:24:39;5.50;;;3.00;;
1959;SDS011;980;43.794;11.212;2024-03-02T15:27:05;1.00;;;1.00;;
1959;SDS011;980;43.794;11.212;2024-03-02T15:29:32;1.50;;;1.50;;
1959;SDS011;980;43.794;11.212;2024-03-02T15:31:57;2.25;;;2.00;;
1959;SDS011;980;43.794;11.212;2024-03-02T15:34:23;5.00;;;2.00;;
1959;SDS011;980;43.794;11.212;2024-03-02T15:36:48;2.00;;;1.75;;
1959;SDS011;980;43.794;11.212;2024-03-02T15:39:14;3.00;;;3.00;;
1959;SDS011;980;43.794;11.212;2024-03-02T15:41:39;1.75;;;1.75;;
1959;SDS011;980;43.794;11.212;2024-03-02T15:44:07;1.25;;;1.25;;
1959;SDS011;980;43.794;11.212;2024-03-02T15:46:33;2.00;;;2.00;;
1959;SDS011;980;43.794;11.212;2024-03-02T15:48:58;2.00;;;2.00;;
1959;SDS011;980;43.794;11.212;2024-03-02T15:51:25;2.00;;;1.00;;
1959;SDS011;980;43.794;11.212;2024-03-02T15:53:50;3.00;;;3.00;;
1959;SDS011;980;43.794;11.212;2024-03-02T15:56:16;89.33;;;70.00;;
1959;SDS011;980;43.794;11.212;2024-03-02T15:58:41;2.00;;;2.00;;
1959;SDS011;980;43.794;11.212;2024-03-02T16:01:06;6.50;;;3.00;;
1959;SDS011;980;43.794;11.212;2024-03-02T16:03:32;2.75;;;1.00;;
1959;SDS011;980;43.794;11.212;2024-03-02T16:05:57;0.50;;;0.50;;
1959;SDS011;980;43.794;11.212;2024-03-02T16:08:23;2.00;;;2.00;;
1959;SDS011;980;43.794;11.212;2024-03-02T16:10:48;7.00;;;1.75;;
1959;SDS011;980;43.794;11.212;2024-03-02T16:13:13;2.00;;;1.00;;
1959;SDS011;980;43.794;11.212;2024-03-02T16:15:38;1.50;;;1.50;;
1959;SDS011;980;43.794;11.212;2024-03-02T16:18:04;1.00;;;1.00;;
1959;SDS011;980;43.794;11.212;2024-03-02T16:20:29;2.00;;;2.00;;
1959;SDS011;980;43.794;11.212;2024-03-02T16:22:55;2.75;;;1.00;;
1959;SDS011;980;43.794;11.212;2024-03-02T16:25:20;1.25;;;1.00;;
1959;SDS011;980;43.794;11.212;2024-03-02T16:27:45;1.00;;;1.00;;
1959;SDS011;980;43.794;11.212;2024-03-02T16:30:11;1.00;;;1.00;;
1959;SDS011;980;43.794;11.212;2024-03-02T16:32:37;1.00;;;1.00;;
1959;SDS011;980;43.794;11.212;2024-03-02T16:35:02;2.00;;;1.50;;
1959;SDS011;980;43.794;11.212;2024-03-02T16:37:28;2.00;;;1.00;;
1959;SDS011;980;43.794;11.212;2024-03-02T16:39:53;2.00;;;2.00;;
1959;SDS011;980;43.794;11.212;2024-03-02T16:42:20;3.00;;;2.00;;
1959;SDS011;980;43.794;11.212;2024-03-02T16:44:46;3.75;;;3.75;;
1959;SDS011;980;43.794;11.212;2024-03-02T16:47:14;3.75;;;3.00;;
1959;SDS011;980;43.794;11.212;2024-03-02T16:49:43;2.00;;;2.00;;
1959;SDS011;980;43.794;11.212;2024-03-02T16:52:08;2.25;;;2.25;;
1959;SDS011;980;43.794;11.212;2024-03-02T16:54:34;3.75;;;3.75;;
1959;SDS011;980;43.794;11.212;2024-03-02T16:56:59;6.25;;;3.25;;
1959;SDS011;980;43.794;11.212;2024-03-02T16:59:25;3.00;;;3.00;;
1959;SDS011;980;43.794;11.212;2024-03-02T17:01:50;4.00;;;3.00;;
1959;SDS011;980;43.794;11.212;2024-03-02T17:04:15;4.00;;;3.25;;
1959;SDS011;980;43.794;11.212;2024-03-02T17:06:40;3.25;;;3.00;;
1959;SDS011;980;43.794;11.212;2024-03-02T17:09:06;4.25;;;4.25;;
1959;SDS011;980;43.794;11.212;2024-03-02T17:11:31;6.00;;;6.00;;
1959;SDS011;980;43.794;11.212;2024-03-02T17:13:56;7.25;;;7.25;;
1959;SDS011;980;43.794;11.212;2024-03-02T17:16:24;8.75;;;6.75;;
1959;SDS011;980;43.794;11.212;2024-03-02T17:18:50;11.00;;;6.00;;
1959;SDS011;980;43.794;11.212;2024-03-02T17:21:16;8.00;;;8.00;;
1959;SDS011;980;43.794;11.212;2024-03-02T17:23:41;8.00;;;6.00;;
1959;SDS011;980;43.794;11.212;2024-03-02T17:26:06;9.25;;;7.00;;
1959;SDS011;980;43.794;11.212;2024-03-02T17:28:32;5.50;;;5.00;;
1959;SDS011;980;43.794;11.212;2024-03-02T17:30:57;6.50;;;5.00;;
1959;SDS011;980;43.794;11.212;2024-03-02T17:33:23;2.25;;;2.25;;
1959;SDS011;980;43.794;11.212;2024-03-02T17:35:49;5.50;;;5.50;;
1959;SDS011;980;43.794;11.212;2024-03-02T17:38:16;7.75;;;7.75;;
1959;SDS011;980;43.794;11.212;2024-03-02T17:40:42;9.50;;;8.75;;
1959;SDS011;980;43.794;11.212;2024-03-02T17:43:10;5.50;;;5.50;;
1959;SDS011;980;43.794;11.212;2024-03-02T17:45:36;7.50;;;6.50;;
1959;SDS011;980;43.794;11.212;2024-03-02T17:48:02;4.25;;;4.25;;
1959;SDS011;980;43.794;11.212;2024-03-02T17:50:28;2.75;;;2.75;;
1959;SDS011;980;43.794;11.212;2024-03-02T17:52:53;3.75;;;3.75;;
1959;SDS011;980;43.794;11.212;2024-03-02T17:55:20;3.75;;;3.75;;
1959;SDS011;980;43.794;11.212;2024-03-02T17:57:45;4.50;;;3.00;;
1959;SDS011;980;43.794;11.212;2024-03-02T18:00:11;6.00;;;6.00;;
1959;SDS011;980;43.794;11.212;2024-03-02T18:02:39;6.00;;;6.00;;
1959;SDS011;980;43.794;11.212;2024-03-02T18:05:05;4.50;;;4.50;;
1959;SDS011;980;43.794;11.212;2024-03-02T18:07:30;10.00;;;10.00;;
1959;SDS011;980;43.794;11.212;2024-03-02T18:09:55;9.00;;;7.50;;
1959;SDS011;980;43.794;11.212;2024-03-02T18:12:25;8.75;;;7.75;;
1959;SDS011;980;43.794;11.212;2024-03-02T18:14:50;8.25;;;8.00;;
1959;SDS011;980;43.794;11.212;2024-03-02T18:17:16;8.25;;;7.50;;
1959;SDS011;980;43.794;11.212;2024-03-02T18:19:41;13.50;;;12.00;;
1959;SDS011;980;43.794;11.212;2024-03-02T18:22:07;12.00;;;11.00;;
1959;SDS011;980;43.794;11.212;2024-03-02T18:24:32;12.25;;;10.00;;
1959;SDS011;980;43.794;11.212;2024-03-02T18:26:57;9.50;;;9.50;;
1959;SDS011;980;43.794;11.212;2024-03-02T18:29:24;11.25;;;10.00;;
1959;SDS011;980;43.794;11.212;2024-03-02T18:31:49;16.75;;;12.00;;
1959;SDS011;980;43.794;11.212;2024-03-02T18:34:15;13.00;;;11.50;;
1959;SDS011;980;43.794;11.212;2024-03-02T18:36:41;13.00;;;13.00;;
1959;SDS011;980;43.794;11.212;2024-03-02T18:39:07;15.00;;;15.00;;
1959;SDS011;980;43.794;11.212;2024-03-02T18:41:33;17.50;;;12.50;;
1959;SDS011;980;43.794;11.212;2024-03-02T18:43:58;14.75;;;12.50;;
1959;SDS011;980;43.794;11.212;2024-03-02T18:46:24;16.00;;;14.75;;
1959;SDS011;980;43.794;11.212;2024-03-02T18:48:49;15.25;;;13.00;;
1959;SDS011;980;43.794;11.212;2024-03-02T18:51:15;16.00;;;12.25;;
1959;SDS011;980;43.794;11.212;2024-03-02T18:53:41;18.25;;;14.00;;
1959;SDS011;980;43.794;11.212;2024-03-02T18:56:08;20.75;;;18.25;;
1959;SDS011;980;43.794;11.212;2024-03-02T18:58:34;18.75;;;16.00;;
1959;SDS011;980;43.794;11.212;2024-03-02T19:01:00;17.50;;;17.50;;
1959;SDS011;980;43.794;11.212;2024-03-02T19:03:25;15.75;;;15.25;;
1959;SDS011;980;43.794;11.212;2024-03-02T19:05:50;15.50;;;15.25;;
1959;SDS011;980;43.794;11.212;2024-03-02T19:08:15;13.75;;;13.25;;
1959;SDS011;980;43.794;11.212;2024-03-02T19:10:43;14.50;;;11.50;;
1959;SDS011;980;43.794;11.212;2024-03-02T19:13:09;17.75;;;15.75;;
1959;SDS011;980;43.794;11.212;2024-03-02T19:15:34;13.00;;;12.25;;
1959;SDS011;980;43.794;11.212;2024-03-02T19:17:59;12.00;;;12.00;;
1959;SDS011;980;43.794;11.212;2024-03-02T19:20:25;21.00;;;14.50;;
1959;SDS011;980;43.794;11.212;2024-03-02T19:22:50;16.00;;;12.25;;
1959;SDS011;980;43.794;11.212;2024-03-02T19:25:15;13.50;;;12.00;;
1959;SDS011;980;43.794;11.212;2024-03-02T19:27:41;16.00;;;15.00;;
1959;SDS011;980;43.794;11.212;2024-03-02T19:30:06;19.25;;;17.75;;
1959;SDS011;980;43.794;11.212;2024-03-02T19:32:33;17.25;;;16.00;;
1959;SDS011;980;43.794;11.212;2024-03-02T19:34:58;18.25;;;16.50;;
1959;SDS011;980;43.794;11.212;2024-03-02T19:37:24;18.50;;;15.75;;
1959;SDS011;980;43.794;11.212;2024-03-02T19:39:50;17.25;;;17.00;;
1959;SDS011;980;43.794;11.212;2024-03-02T19:42:15;16.75;;;15.00;;
1959;SDS011;980;43.794;11.212;2024-03-02T19:44:40;20.00;;;16.00;;
1959;SDS011;980;43.794;11.212;2024-03-02T19:47:07;19.50;;;17.50;;
1959;SDS011;980;43.794;11.212;2024-03-02T19:49:33;19.50;;;19.25;;
1959;SDS011;980;43.794;11.212;2024-03-02T19:51:58;19.75;;;19.25;;
1959;SDS011;980;43.794;11.212;2024-03-02T19:54:23;19.50;;;17.00;;
1959;SDS011;980;43.794;11.212;2024-03-02T19:56:49;20.50;;;16.50;;
1959;SDS011;980;43.794;11.212;2024-03-02T19:59:14;22.50;;;19.50;;
1959;SDS011;980;43.794;11.212;2024-03-02T20:01:39;17.00;;;16.75;;
1959;SDS011;980;43.794;11.212;2024-03-02T20:04:05;23.75;;;19.25;;
1959;SDS011;980;43.794;11.212;2024-03-02T20:06:30;24.75;;;20.75;;
1959;SDS011;980;43.794;11.212;2024-03-02T20:08:55;19.50;;;18.25;;
1959;SDS011;980;43.794;11.212;2024-03-02T20:11:21;18.00;;;18.00;;
1959;SDS011;980;43.794;11.212;2024-03-02T20:13:46;23.25;;;21.25;;
1959;SDS011;980;43.794;11.212;2024-03-02T20:16:11;21.00;;;17.50;;
1959;SDS011;980;43.794;11.212;2024-03-02T20:18:37;18.25;;;15.50;;
1959;SDS011;980;43.794;11.212;2024-03-02T20:21:02;19.50;;;17.25;;
1959;SDS011;980;43.794;11.212;2024-03-02T20:23:28;20.50;;;20.50;;
1959;SDS011;980;43.794;11.212;2024-03-02T20:25:53;20.00;;;17.50;;
1959;SDS011;980;43.794;11.212;2024-03-02T20:28:20;23.75;;;19.25;;
1959;SDS011;980;43.794;11.212;2024-03-02T20:30:45;20.25;;;20.00;;
1959;SDS011;980;43.794;11.212;2024-03-02T20:33:10;19.25;;;17.50;;
1959;SDS011;980;43.794;11.212;2024-03-02T20:35:36;23.00;;;20.00;;
1959;SDS011;980;43.794;11.212;2024-03-02T20:38:01;25.75;;;22.50;;
1959;SDS011;980;43.794;11.212;2024-03-02T20:40:27;26.75;;;19.50;;
1959;SDS011;980;43.794;11.212;2024-03-02T20:42:53;22.00;;;20.00;;
1959;SDS011;980;43.794;11.212;2024-03-02T20:45:19;20.25;;;18.25;;
1959;SDS011;980;43.794;11.212;2024-03-02T20:47:44;25.25;;;22.50;;
1959;SDS011;980;43.794;11.212;2024-03-02T20:50:10;20.00;;;19.00;;
1959;SDS011;980;43.794;11.212;2024-03-02T20:52:35;22.50;;;21.00;;
1959;SDS011;980;43.794;11.212;2024-03-02T20:55:01;24.25;;;17.25;;
1959;SDS011;980;43.794;11.212;2024-03-02T20:57:26;19.50;;;19.50;;
1959;SDS011;980;43.794;11.212;2024-03-02T20:59:51;20.75;;;19.50;;
1959;SDS011;980;43.794;11.212;2024-03-02T21:02:17;24.75;;;20.00;;
1959;SDS011;980;43.794;11.212;2024-03-02T21:04:42;23.75;;;20.75;;
1959;SDS011;980;43.794;11.212;2024-03-02T21:07:09;19.25;;;16.25;;
1959;SDS011;980;43.794;11.212;2024-03-02T21:09:35;19.00;;;19.00;;
1959;SDS011;980;43.794;11.212;2024-03-02T21:12:00;24.00;;;20.75;;
1959;SDS011;980;43.794;11.212;2024-03-02T21:14:27;20.50;;;20.00;;
1959;SDS011;980;43.794;11.212;2024-03-02T21:16:52;21.50;;;19.75;;
1959;SDS011;980;43.794;11.212;2024-03-02T21:19:18;20.50;;;19.00;;
1959;SDS011;980;43.794;11.212;2024-03-02T21:21:43;19.00;;;17.50;;
1959;SDS011;980;43.794;11.212;2024-03-02T21:24:08;24.50;;;20.50;;
1959;SDS011;980;43.794;11.212;2024-03-02T21:26:39;25.50;;;23.25;;
1959;SDS011;980;43.794;11.212;2024-03-02T21:29:06;21.25;;;21.25;;
1959;SDS011;980;43.794;11.212;2024-03-02T21:31:32;24.25;;;22.25;;
1959;SDS011;980;43.794;11.212;2024-03-02T21:33:57;25.00;;;20.25;;
1959;SDS011;980;43.794;11.212;2024-03-02T21:36:22;20.00;;;19.25;;
1959;SDS011;980;43.794;11.212;2024-03-02T21:38:47;22.75;;;20.00;;
1959;SDS011;980;43.794;11.212;2024-03-02T21:41:13;22.00;;;19.75;;
1959;SDS011;980;43.794;11.212;2024-03-02T21:43:38;25.25;;;21.00;;
1959;SDS011;980;43.794;11.212;2024-03-02T21:46:04;26.25;;;19.25;;
1959;SDS011;980;43.794;11.212;2024-03-02T21:48:29;30.50;;;20.00;;
1959;SDS011;980;43.794;11.212;2024-03-02T21:50:55;19.75;;;19.00;;
1959;SDS011;980;43.794;11.212;2024-03-02T21:53:20;20.00;;;20.00;;
1959;SDS011;980;43.794;11.212;2024-03-02T21:55:45;19.00;;;19.00;;
1959;SDS011;980;43.794;11.212;2024-03-02T21:58:11;26.75;;;21.25;;
1959;SDS011;980;43.794;11.212;2024-03-02T22:00:36;20.00;;;19.25;;
1959;SDS011;980;43.794;11.212;2024-03-02T22:03:02;28.00;;;24.25;;
1959;SDS011;980;43.794;11.212;2024-03-02T22:05:28;27.75;;;24.50;;
1959;SDS011;980;43.794;11.212;2024-03-02T22:07:54;21.00;;;19.50;;
1959;SDS011;980;43.794;11.212;2024-03-02T22:10:20;27.75;;;24.00;;
1959;SDS011;980;43.794;11.212;2024-03-02T22:12:45;30.00;;;24.00;;
1959;SDS011;980;43.794;11.212;2024-03-02T22:15:10;20.75;;;20.75;;
1959;SDS011;980;43.794;11.212;2024-03-02T22:17:35;24.25;;;23.25;;
1959;SDS011;980;43.794;11.212;2024-03-02T22:20:01;22.75;;;21.25;;
1959;SDS011;980;43.794;11.212;2024-03-02T22:22:27;23.00;;;21.50;;
1959;SDS011;980;43.794;11.212;2024-03-02T22:24:53;23.75;;;21.75;;
1959;SDS011;980;43.794;11.212;2024-03-02T22:27:18;30.00;;;23.75;;
1959;SDS011;980;43.794;11.212;2024-03-02T22:29:43;31.50;;;26.00;;
1959;SDS011;980;43.794;11.212;2024-03-02T22:32:09;26.00;;;23.00;;
1959;SDS011;980;43.794;11.212;2024-03-02T22:34:34;24.75;;;19.75;;
1959;SDS011;980;43.794;11.212;2024-03-02T22:37:00;26.75;;;24.00;;
1959;SDS011;980;43.794;11.212;2024-03-02T22:39:25;26.75;;;23.50;;
1959;SDS011;980;43.794;11.212;2024-03-02T22:41:51;24.00;;;21.75;;
1959;SDS011;980;43.794;11.212;2024-03-02T22:44:16;22.50;;;19.25;;
1959;SDS011;980;43.794;11.212;2024-03-02T22:46:43;20.25;;;20.25;;
1959;SDS011;980;43.794;11.212;2024-03-02T22:49:09;19.50;;;19.50;;
1959;SDS011;980;43.794;11.212;2024-03-02T22:51:34;19.25;;;18.00;;
1959;SDS011;980;43.794;11.212;2024-03-02T22:54:00;21.50;;;19.00;;
1959;SDS011;980;43.794;11.212;2024-03-02T22:56:25;23.00;;;19.00;;
1959;SDS011;980;43.794;11.212;2024-03-02T22:58:50;19.00;;;18.75;;
1959;SDS011;980;43.794;11.212;2024-03-02T23:01:16;27.50;;;20.50;;
1959;SDS011;980;43.794;11.212;2024-03-02T23:03:45;19.25;;;18.75;;
1959;SDS011;980;43.794;11.212;2024-03-02T23:06:10;24.00;;;19.50;;
1959;SDS011;980;43.794;11.212;2024-03-02T23:08:35;19.75;;;19.50;;
1959;SDS011;980;43.794;11.212;2024-03-02T23:11:04;21.50;;;19.75;;
1959;SDS011;980;43.794;11.212;2024-03-02T23:13:29;24.25;;;21.25;;
